sensor_id;sensor_type;location;lat;lon;timestamp;temperature;humidity
74617;DHT22;63123;50.906;4.198;2023-08-31T00:01:41;20.90;64.70
74617;DHT22;63123;50.906;4.198;2023-08-31T00:04:06;21.00;64.70
74617;DHT22;63123;50.906;4.198;2023-08-31T00:06:40;20.90;64.80
74617;DHT22;63123;50.906;4.198;2023-08-31T00:09:05;20.90;64.60
74617;DHT22;63123;50.906;4.198;2023-08-31T00:11:35;20.90;64.70
74617;DHT22;63123;50.906;4.198;2023-08-31T00:14:00;20.90;64.70
74617;DHT22;63123;50.906;4.198;2023-08-31T00:16:26;20.90;64.70
74617;DHT22;63123;50.906;4.198;2023-08-31T00:18:52;20.90;64.70
74617;DHT22;63123;50.906;4.198;2023-08-31T00:21:18;20.90;64.60
74617;DHT22;63123;50.906;4.198;2023-08-31T00:23:44;20.90;64.70
74617;DHT22;63123;50.906;4.198;2023-08-31T00:26:09;20.90;64.70
74617;DHT22;63123;50.906;4.198;2023-08-31T00:28:35;20.90;64.60
74617;DHT22;63123;50.906;4.198;2023-08-31T00:31:02;20.90;64.60
74617;DHT22;63123;50.906;4.198;2023-08-31T00:33:30;20.90;64.60
74617;DHT22;63123;50.906;4.198;2023-08-31T00:36:00;20.90;64.70
74617;DHT22;63123;50.906;4.198;2023-08-31T00:38:32;20.90;64.60
74617;DHT22;63123;50.906;4.198;2023-08-31T00:40:58;20.90;64.40
74617;DHT22;63123;50.906;4.198;2023-08-31T00:43:23;20.90;64.60
74617;DHT22;63123;50.906;4.198;2023-08-31T00:45:51;20.90;64.60
74617;DHT22;63123;50.906;4.198;2023-08-31T00:48:17;20.90;64.70
74617;DHT22;63123;50.906;4.198;2023-08-31T00:50:44;20.90;64.60
74617;DHT22;63123;50.906;4.198;2023-08-31T00:53:11;20.90;64.60
74617;DHT22;63123;50.906;4.198;2023-08-31T00:55:37;20.90;64.60
74617;DHT22;63123;50.906;4.198;2023-08-31T00:58:04;20.90;64.50
74617;DHT22;63123;50.906;4.198;2023-08-31T01:03:31;20.90;64.60
74617;DHT22;63123;50.906;4.198;2023-08-31T01:06:12;21.00;64.70
74617;DHT22;63123;50.906;4.198;2023-08-31T01:08:57;20.90;64.60
74617;DHT22;63123;50.906;4.198;2023-08-31T01:11:34;20.90;64.80
74617;DHT22;63123;50.906;4.198;2023-08-31T01:14:12;20.90;64.50
74617;DHT22;63123;50.906;4.198;2023-08-31T01:16:42;20.90;64.50
74617;DHT22;63123;50.906;4.198;2023-08-31T01:21:54;20.90;64.50
74617;DHT22;63123;50.906;4.198;2023-08-31T01:24:23;20.90;64.20
74617;DHT22;63123;50.906;4.198;2023-08-31T01:26:48;20.90;64.60
74617;DHT22;63123;50.906;4.198;2023-08-31T01:29:14;20.90;64.50
74617;DHT22;63123;50.906;4.198;2023-08-31T01:31:43;20.90;64.30
74617;DHT22;63123;50.906;4.198;2023-08-31T01:34:10;20.90;64.30
74617;DHT22;63123;50.906;4.198;2023-08-31T01:36:39;20.90;64.40
74617;DHT22;63123;50.906;4.198;2023-08-31T01:40:20;20.90;64.30
74617;DHT22;63123;50.906;4.198;2023-08-31T01:42:15;20.90;64.30
74617;DHT22;63123;50.906;4.198;2023-08-31T01:44:42;20.90;64.40
74617;DHT22;63123;50.906;4.198;2023-08-31T01:47:09;20.90;64.30
74617;DHT22;63123;50.906;4.198;2023-08-31T01:49:39;20.90;64.50
74617;DHT22;63123;50.906;4.198;2023-08-31T01:52:06;20.90;64.40
74617;DHT22;63123;50.906;4.198;2023-08-31T01:54:32;20.90;64.20
74617;DHT22;63123;50.906;4.198;2023-08-31T01:56:58;20.90;64.50
74617;DHT22;63123;50.906;4.198;2023-08-31T01:59:24;20.90;64.40
74617;DHT22;63123;50.906;4.198;2023-08-31T02:01:49;20.90;64.10
74617;DHT22;63123;50.906;4.198;2023-08-31T02:04:15;20.90;64.20
74617;DHT22;63123;50.906;4.198;2023-08-31T02:06:41;20.90;64.00
74617;DHT22;63123;50.906;4.198;2023-08-31T02:09:07;20.90;64.10
74617;DHT22;63123;50.906;4.198;2023-08-31T02:11:32;20.90;64.60
74617;DHT22;63123;50.906;4.198;2023-08-31T02:14:01;20.90;64.40
74617;DHT22;63123;50.906;4.198;2023-08-31T02:16:27;20.90;64.30
74617;DHT22;63123;50.906;4.198;2023-08-31T02:18:53;20.90;64.40
74617;DHT22;63123;50.906;4.198;2023-08-31T02:21:19;20.90;64.60
74617;DHT22;63123;50.906;4.198;2023-08-31T02:23:45;20.90;64.20
74617;DHT22;63123;50.906;4.198;2023-08-31T02:26:11;20.90;64.10
74617;DHT22;63123;50.906;4.198;2023-08-31T02:28:37;20.90;64.20
74617;DHT22;63123;50.906;4.198;2023-08-31T02:31:03;20.90;64.10
74617;DHT22;63123;50.906;4.198;2023-08-31T02:33:29;20.90;64.30
74617;DHT22;63123;50.906;4.198;2023-08-31T02:35:55;20.90;64.00
74617;DHT22;63123;50.906;4.198;2023-08-31T02:38:21;20.90;64.20
74617;DHT22;63123;50.906;4.198;2023-08-31T02:40:47;20.90;64.10
74617;DHT22;63123;50.906;4.198;2023-08-31T02:43:13;20.90;64.00
74617;DHT22;63123;50.906;4.198;2023-08-31T02:45:39;20.90;64.10
74617;DHT22;63123;50.906;4.198;2023-08-31T02:48:07;20.90;64.20
74617;DHT22;63123;50.906;4.198;2023-08-31T02:50:34;20.90;64.80
74617;DHT22;63123;50.906;4.198;2023-08-31T02:53:00;20.90;64.20
74617;DHT22;63123;50.906;4.198;2023-08-31T02:55:25;20.90;64.00
74617;DHT22;63123;50.906;4.198;2023-08-31T02:57:51;20.90;64.00
74617;DHT22;63123;50.906;4.198;2023-08-31T03:00:17;20.90;63.80
74617;DHT22;63123;50.906;4.198;2023-08-31T03:02:47;20.90;63.80
74617;DHT22;63123;50.906;4.198;2023-08-31T03:05:13;20.90;64.10
74617;DHT22;63123;50.906;4.198;2023-08-31T03:07:39;20.90;63.80
74617;DHT22;63123;50.906;4.198;2023-08-31T03:10:05;20.90;64.40
74617;DHT22;63123;50.906;4.198;2023-08-31T03:12:31;20.90;64.10
74617;DHT22;63123;50.906;4.198;2023-08-31T03:14:56;20.90;63.80
74617;DHT22;63123;50.906;4.198;2023-08-31T03:17:22;20.90;64.00
74617;DHT22;63123;50.906;4.198;2023-08-31T03:19:48;20.90;63.90
74617;DHT22;63123;50.906;4.198;2023-08-31T03:22:14;20.90;64.00
74617;DHT22;63123;50.906;4.198;2023-08-31T03:24:39;20.90;63.80
74617;DHT22;63123;50.906;4.198;2023-08-31T03:27:05;20.90;64.10
74617;DHT22;63123;50.906;4.198;2023-08-31T03:29:31;20.90;64.00
74617;DHT22;63123;50.906;4.198;2023-08-31T03:31:59;20.90;63.90
74617;DHT22;63123;50.906;4.198;2023-08-31T03:34:31;20.90;64.00
74617;DHT22;63123;50.906;4.198;2023-08-31T03:36:58;20.90;64.00
74617;DHT22;63123;50.906;4.198;2023-08-31T03:39:24;20.90;63.80
74617;DHT22;63123;50.906;4.198;2023-08-31T03:41:50;20.90;63.70
74617;DHT22;63123;50.906;4.198;2023-08-31T03:44:16;20.90;64.00
74617;DHT22;63123;50.906;4.198;2023-08-31T03:46:42;20.90;63.80
74617;DHT22;63123;50.906;4.198;2023-08-31T03:49:08;20.90;63.70
74617;DHT22;63123;50.906;4.198;2023-08-31T03:51:34;20.90;64.40
74617;DHT22;63123;50.906;4.198;2023-08-31T03:53:59;20.90;63.70
74617;DHT22;63123;50.906;4.198;2023-08-31T03:56:25;20.90;63.80
74617;DHT22;63123;50.906;4.198;2023-08-31T03:58:52;20.90;63.50
74617;DHT22;63123;50.906;4.198;2023-08-31T04:01:17;20.90;63.80
74617;DHT22;63123;50.906;4.198;2023-08-31T04:03:43;20.90;63.80
74617;DHT22;63123;50.906;4.198;2023-08-31T04:06:09;20.90;63.70
74617;DHT22;63123;50.906;4.198;2023-08-31T04:08:34;20.90;63.40
74617;DHT22;63123;50.906;4.198;2023-08-31T04:11:00;20.90;63.60
74617;DHT22;63123;50.906;4.198;2023-08-31T04:13:26;20.90;63.40
74617;DHT22;63123;50.906;4.198;2023-08-31T04:15:52;20.90;63.70
74617;DHT22;63123;50.906;4.198;2023-08-31T04:18:18;20.90;63.40
74617;DHT22;63123;50.906;4.198;2023-08-31T04:20:51;20.80;63.40
74617;DHT22;63123;50.906;4.198;2023-08-31T04:23:17;20.90;63.40
74617;DHT22;63123;50.906;4.198;2023-08-31T04:25:43;20.90;63.50
74617;DHT22;63123;50.906;4.198;2023-08-31T04:28:09;20.90;63.40
74617;DHT22;63123;50.906;4.198;2023-08-31T04:30:34;20.90;63.20
74617;DHT22;63123;50.906;4.198;2023-08-31T04:33:00;20.90;63.40
74617;DHT22;63123;50.906;4.198;2023-08-31T04:35:26;20.90;63.40
74617;DHT22;63123;50.906;4.198;2023-08-31T04:37:52;20.90;63.50
74617;DHT22;63123;50.906;4.198;2023-08-31T04:40:18;20.90;63.60
74617;DHT22;63123;50.906;4.198;2023-08-31T04:42:44;20.90;63.30
74617;DHT22;63123;50.906;4.198;2023-08-31T04:45:10;20.90;63.30
74617;DHT22;63123;50.906;4.198;2023-08-31T04:47:36;20.90;63.40
74617;DHT22;63123;50.906;4.198;2023-08-31T04:50:02;20.90;63.30
74617;DHT22;63123;50.906;4.198;2023-08-31T04:52:28;20.90;63.20
74617;DHT22;63123;50.906;4.198;2023-08-31T04:54:54;20.90;63.30
74617;DHT22;63123;50.906;4.198;2023-08-31T04:57:20;20.90;63.10
74617;DHT22;63123;50.906;4.198;2023-08-31T04:59:46;20.90;63.20
74617;DHT22;63123;50.906;4.198;2023-08-31T05:02:11;20.90;63.30
74617;DHT22;63123;50.906;4.198;2023-08-31T05:04:37;20.90;63.00
74617;DHT22;63123;50.906;4.198;2023-08-31T05:07:02;20.90;62.90
74617;DHT22;63123;50.906;4.198;2023-08-31T05:09:28;20.90;62.90
74617;DHT22;63123;50.906;4.198;2023-08-31T05:11:58;20.90;63.10
74617;DHT22;63123;50.906;4.198;2023-08-31T05:14:24;20.90;63.20
74617;DHT22;63123;50.906;4.198;2023-08-31T05:16:50;20.90;63.10
74617;DHT22;63123;50.906;4.198;2023-08-31T05:19:16;20.90;63.30
74617;DHT22;63123;50.906;4.198;2023-08-31T05:21:41;20.90;63.30
74617;DHT22;63123;50.906;4.198;2023-08-31T05:24:07;20.90;63.30
74617;DHT22;63123;50.906;4.198;2023-08-31T05:26:33;20.90;63.30
74617;DHT22;63123;50.906;4.198;2023-08-31T05:28:59;20.80;63.20
74617;DHT22;63123;50.906;4.198;2023-08-31T05:31:25;20.90;63.40
74617;DHT22;63123;50.906;4.198;2023-08-31T05:33:50;20.90;63.60
74617;DHT22;63123;50.906;4.198;2023-08-31T05:36:16;20.80;63.40
74617;DHT22;63123;50.906;4.198;2023-08-31T05:38:42;20.90;63.40
74617;DHT22;63123;50.906;4.198;2023-08-31T05:41:08;20.80;63.60
74617;DHT22;63123;50.906;4.198;2023-08-31T05:43:35;20.90;63.60
74617;DHT22;63123;50.906;4.198;2023-08-31T05:46:01;20.90;63.90
74617;DHT22;63123;50.906;4.198;2023-08-31T05:48:28;20.90;63.60
74617;DHT22;63123;50.906;4.198;2023-08-31T05:50:54;20.90;63.70
74617;DHT22;63123;50.906;4.198;2023-08-31T05:53:20;20.90;63.70
74617;DHT22;63123;50.906;4.198;2023-08-31T05:55:46;20.90;63.80
74617;DHT22;63123;50.906;4.198;2023-08-31T05:58:12;20.80;63.60
74617;DHT22;63123;50.906;4.198;2023-08-31T06:00:38;20.90;63.80
74617;DHT22;63123;50.906;4.198;2023-08-31T06:03:04;20.90;63.70
74617;DHT22;63123;50.906;4.198;2023-08-31T06:05:31;20.90;63.80
74617;DHT22;63123;50.906;4.198;2023-08-31T06:07:58;20.90;63.80
74617;DHT22;63123;50.906;4.198;2023-08-31T06:10:23;20.90;64.30
74617;DHT22;63123;50.906;4.198;2023-08-31T06:12:50;20.80;63.70
74617;DHT22;63123;50.906;4.198;2023-08-31T06:15:16;20.90;63.80
74617;DHT22;63123;50.906;4.198;2023-08-31T06:17:42;20.90;63.80
74617;DHT22;63123;50.906;4.198;2023-08-31T06:20:09;20.80;63.80
74617;DHT22;63123;50.906;4.198;2023-08-31T06:22:35;20.80;63.80
74617;DHT22;63123;50.906;4.198;2023-08-31T06:25:00;20.90;63.90
74617;DHT22;63123;50.906;4.198;2023-08-31T06:27:26;20.90;64.00
74617;DHT22;63123;50.906;4.198;2023-08-31T06:29:52;20.90;63.90
74617;DHT22;63123;50.906;4.198;2023-08-31T06:32:18;20.80;64.00
74617;DHT22;63123;50.906;4.198;2023-08-31T06:34:44;20.90;63.80
74617;DHT22;63123;50.906;4.198;2023-08-31T06:37:10;20.90;63.80
74617;DHT22;63123;50.906;4.198;2023-08-31T06:39:36;20.90;63.80
74617;DHT22;63123;50.906;4.198;2023-08-31T06:42:02;20.90;64.10
74617;DHT22;63123;50.906;4.198;2023-08-31T06:44:29;20.90;64.00
74617;DHT22;63123;50.906;4.198;2023-08-31T06:46:55;20.80;63.90
74617;DHT22;63123;50.906;4.198;2023-08-31T06:49:22;20.90;64.00
74617;DHT22;63123;50.906;4.198;2023-08-31T06:51:48;20.90;64.20
74617;DHT22;63123;50.906;4.198;2023-08-31T06:54:14;20.90;64.10
74617;DHT22;63123;50.906;4.198;2023-08-31T06:56:39;20.90;64.20
74617;DHT22;63123;50.906;4.198;2023-08-31T06:59:05;20.90;64.00
74617;DHT22;63123;50.906;4.198;2023-08-31T07:01:31;20.90;64.30
74617;DHT22;63123;50.906;4.198;2023-08-31T07:03:58;20.90;64.30
74617;DHT22;63123;50.906;4.198;2023-08-31T07:06:24;20.90;64.40
74617;DHT22;63123;50.906;4.198;2023-08-31T07:08:49;20.90;64.40
74617;DHT22;63123;50.906;4.198;2023-08-31T07:11:15;20.90;64.30
74617;DHT22;63123;50.906;4.198;2023-08-31T07:13:41;20.90;64.40
74617;DHT22;63123;50.906;4.198;2023-08-31T07:16:07;20.90;64.50
74617;DHT22;63123;50.906;4.198;2023-08-31T07:18:33;20.90;64.50
74617;DHT22;63123;50.906;4.198;2023-08-31T07:20:59;20.90;64.60
74617;DHT22;63123;50.906;4.198;2023-08-31T07:23:24;20.90;64.50
74617;DHT22;63123;50.906;4.198;2023-08-31T07:25:50;20.90;64.70
74617;DHT22;63123;50.906;4.198;2023-08-31T07:28:15;20.90;64.40
74617;DHT22;63123;50.906;4.198;2023-08-31T07:30:41;20.90;64.50
74617;DHT22;63123;50.906;4.198;2023-08-31T07:33:07;20.90;64.40
74617;DHT22;63123;50.906;4.198;2023-08-31T07:35:33;20.90;64.50
74617;DHT22;63123;50.906;4.198;2023-08-31T07:37:58;20.90;64.60
74617;DHT22;63123;50.906;4.198;2023-08-31T07:40:24;20.90;64.70
74617;DHT22;63123;50.906;4.198;2023-08-31T07:42:51;20.90;64.70
74617;DHT22;63123;50.906;4.198;2023-08-31T07:45:17;20.90;64.70
74617;DHT22;63123;50.906;4.198;2023-08-31T07:47:43;20.90;64.70
74617;DHT22;63123;50.906;4.198;2023-08-31T07:50:09;20.90;64.60
74617;DHT22;63123;50.906;4.198;2023-08-31T07:52:34;20.90;64.50
74617;DHT22;63123;50.906;4.198;2023-08-31T07:55:00;20.90;64.60
74617;DHT22;63123;50.906;4.198;2023-08-31T07:57:26;20.90;64.70
74617;DHT22;63123;50.906;4.198;2023-08-31T07:59:52;20.90;64.70
74617;DHT22;63123;50.906;4.198;2023-08-31T08:02:18;20.90;64.80
74617;DHT22;63123;50.906;4.198;2023-08-31T08:04:46;20.90;64.80
74617;DHT22;63123;50.906;4.198;2023-08-31T08:07:11;20.90;64.80
74617;DHT22;63123;50.906;4.198;2023-08-31T08:09:37;20.90;64.70
74617;DHT22;63123;50.906;4.198;2023-08-31T08:12:03;20.90;64.70
74617;DHT22;63123;50.906;4.198;2023-08-31T08:14:29;20.90;64.70
74617;DHT22;63123;50.906;4.198;2023-08-31T08:16:55;20.90;64.80
74617;DHT22;63123;50.906;4.198;2023-08-31T08:19:24;20.90;64.80
74617;DHT22;63123;50.906;4.198;2023-08-31T08:21:52;20.90;64.80
74617;DHT22;63123;50.906;4.198;2023-08-31T08:24:18;20.90;64.80
74617;DHT22;63123;50.906;4.198;2023-08-31T08:26:44;20.90;64.70
74617;DHT22;63123;50.906;4.198;2023-08-31T08:29:09;20.90;64.90
74617;DHT22;63123;50.906;4.198;2023-08-31T08:31:35;20.90;64.90
74617;DHT22;63123;50.906;4.198;2023-08-31T08:34:01;20.90;64.80
74617;DHT22;63123;50.906;4.198;2023-08-31T08:36:26;20.90;64.90
74617;DHT22;63123;50.906;4.198;2023-08-31T08:38:52;20.90;65.00
74617;DHT22;63123;50.906;4.198;2023-08-31T08:41:21;20.90;64.90
74617;DHT22;63123;50.906;4.198;2023-08-31T08:43:48;20.90;64.90
74617;DHT22;63123;50.906;4.198;2023-08-31T08:46:16;20.90;64.90
74617;DHT22;63123;50.906;4.198;2023-08-31T08:48:42;20.90;65.00
74617;DHT22;63123;50.906;4.198;2023-08-31T08:51:09;20.90;65.10
74617;DHT22;63123;50.906;4.198;2023-08-31T08:53:35;20.90;65.00
74617;DHT22;63123;50.906;4.198;2023-08-31T08:56:03;20.90;65.10
74617;DHT22;63123;50.906;4.198;2023-08-31T08:58:29;20.90;65.10
74617;DHT22;63123;50.906;4.198;2023-08-31T09:00:55;20.90;65.30
74617;DHT22;63123;50.906;4.198;2023-08-31T09:03:24;20.90;65.30
74617;DHT22;63123;50.906;4.198;2023-08-31T09:05:52;20.90;65.20
74617;DHT22;63123;50.906;4.198;2023-08-31T09:08:25;20.90;65.10
74617;DHT22;63123;50.906;4.198;2023-08-31T09:10:51;20.90;65.10
74617;DHT22;63123;50.906;4.198;2023-08-31T09:13:18;20.90;65.20
74617;DHT22;63123;50.906;4.198;2023-08-31T09:20:47;20.90;65.30
74617;DHT22;63123;50.906;4.198;2023-08-31T09:23:13;20.90;65.30
74617;DHT22;63123;50.906;4.198;2023-08-31T09:25:47;20.90;65.30
74617;DHT22;63123;50.906;4.198;2023-08-31T09:28:18;20.90;65.40
74617;DHT22;63123;50.906;4.198;2023-08-31T09:30:46;20.90;65.30
74617;DHT22;63123;50.906;4.198;2023-08-31T09:33:15;20.90;65.30
74617;DHT22;63123;50.906;4.198;2023-08-31T09:35:51;20.90;65.40
74617;DHT22;63123;50.906;4.198;2023-08-31T09:38:17;20.90;65.40
74617;DHT22;63123;50.906;4.198;2023-08-31T09:40:43;20.90;65.30
74617;DHT22;63123;50.906;4.198;2023-08-31T09:43:08;20.90;65.20
74617;DHT22;63123;50.906;4.198;2023-08-31T09:45:34;20.90;65.20
74617;DHT22;63123;50.906;4.198;2023-08-31T09:48:03;20.90;65.30
74617;DHT22;63123;50.906;4.198;2023-08-31T09:50:30;20.90;65.30
74617;DHT22;63123;50.906;4.198;2023-08-31T09:53:01;20.90;65.30
74617;DHT22;63123;50.906;4.198;2023-08-31T09:55:29;20.90;65.40
74617;DHT22;63123;50.906;4.198;2023-08-31T09:57:57;20.90;65.40
74617;DHT22;63123;50.906;4.198;2023-08-31T10:00:27;21.00;65.50
74617;DHT22;63123;50.906;4.198;2023-08-31T10:02:56;21.00;65.40
74617;DHT22;63123;50.906;4.198;2023-08-31T10:05:23;20.90;65.50
74617;DHT22;63123;50.906;4.198;2023-08-31T10:07:50;21.00;65.50
74617;DHT22;63123;50.906;4.198;2023-08-31T10:10:16;20.90;65.50
74617;DHT22;63123;50.906;4.198;2023-08-31T10:12:43;21.00;65.30
74617;DHT22;63123;50.906;4.198;2023-08-31T10:15:09;21.00;65.30
74617;DHT22;63123;50.906;4.198;2023-08-31T10:17:36;20.90;65.30
74617;DHT22;63123;50.906;4.198;2023-08-31T10:20:02;20.90;65.20
74617;DHT22;63123;50.906;4.198;2023-08-31T10:22:28;21.00;65.30
74617;DHT22;63123;50.906;4.198;2023-08-31T10:25:02;20.90;65.20
74617;DHT22;63123;50.906;4.198;2023-08-31T10:27:39;21.00;65.30
74617;DHT22;63123;50.906;4.198;2023-08-31T10:36:00;21.00;65.10
74617;DHT22;63123;50.906;4.198;2023-08-31T10:46:47;21.00;65.00
74617;DHT22;63123;50.906;4.198;2023-08-31T10:49:15;21.00;65.00
74617;DHT22;63123;50.906;4.198;2023-08-31T10:52:15;21.00;65.10
74617;DHT22;63123;50.906;4.198;2023-08-31T10:54:32;21.00;65.10
74617;DHT22;63123;50.906;4.198;2023-08-31T10:57:03;21.00;65.00
74617;DHT22;63123;50.906;4.198;2023-08-31T11:02:10;21.00;65.00
74617;DHT22;63123;50.906;4.198;2023-08-31T11:04:59;20.90;65.60
74617;DHT22;63123;50.906;4.198;2023-08-31T11:07:27;20.90;65.10
74617;DHT22;63123;50.906;4.198;2023-08-31T11:10:19;20.90;65.20
74617;DHT22;63123;50.906;4.198;2023-08-31T11:12:50;20.90;65.00
74617;DHT22;63123;50.906;4.198;2023-08-31T11:15:18;21.00;65.20
74617;DHT22;63123;50.906;4.198;2023-08-31T11:17:44;21.00;65.20
74617;DHT22;63123;50.906;4.198;2023-08-31T11:20:16;21.00;65.20
74617;DHT22;63123;50.906;4.198;2023-08-31T11:22:43;21.00;65.20
74617;DHT22;63123;50.906;4.198;2023-08-31T11:25:11;20.90;65.00
74617;DHT22;63123;50.906;4.198;2023-08-31T11:27:37;21.00;65.10
74617;DHT22;63123;50.906;4.198;2023-08-31T11:30:17;20.90;65.00
74617;DHT22;63123;50.906;4.198;2023-08-31T11:32:47;20.90;64.70
74617;DHT22;63123;50.906;4.198;2023-08-31T11:35:14;21.00;65.00
74617;DHT22;63123;50.906;4.198;2023-08-31T11:37:41;20.90;64.90
74617;DHT22;63123;50.906;4.198;2023-08-31T11:40:08;20.90;64.90
74617;DHT22;63123;50.906;4.198;2023-08-31T11:42:34;20.90;64.90
74617;DHT22;63123;50.906;4.198;2023-08-31T11:45:00;20.90;64.90
74617;DHT22;63123;50.906;4.198;2023-08-31T11:47:26;21.00;65.00
74617;DHT22;63123;50.906;4.198;2023-08-31T11:49:53;20.90;64.80
74617;DHT22;63123;50.906;4.198;2023-08-31T11:52:18;20.90;64.90
74617;DHT22;63123;50.906;4.198;2023-08-31T11:54:44;20.90;65.00
74617;DHT22;63123;50.906;4.198;2023-08-31T11:57:11;20.90;64.90
74617;DHT22;63123;50.906;4.198;2023-08-31T11:59:38;21.00;65.10
74617;DHT22;63123;50.906;4.198;2023-08-31T12:02:08;20.90;64.80
74617;DHT22;63123;50.906;4.198;2023-08-31T12:04:41;20.90;64.90
74617;DHT22;63123;50.906;4.198;2023-08-31T12:07:08;21.00;65.00
74617;DHT22;63123;50.906;4.198;2023-08-31T12:09:33;21.00;64.90
74617;DHT22;63123;50.906;4.198;2023-08-31T12:11:59;21.00;64.60
74617;DHT22;63123;50.906;4.198;2023-08-31T12:14:26;21.00;64.70
74617;DHT22;63123;50.906;4.198;2023-08-31T12:17:03;21.00;64.70
74617;DHT22;63123;50.906;4.198;2023-08-31T12:19:30;20.90;64.50
74617;DHT22;63123;50.906;4.198;2023-08-31T12:21:56;20.90;64.50
74617;DHT22;63123;50.906;4.198;2023-08-31T12:24:22;20.90;64.70
74617;DHT22;63123;50.906;4.198;2023-08-31T12:26:49;20.90;64.50
74617;DHT22;63123;50.906;4.198;2023-08-31T12:29:14;21.00;64.50
74617;DHT22;63123;50.906;4.198;2023-08-31T12:31:40;20.90;64.60
74617;DHT22;63123;50.906;4.198;2023-08-31T12:34:06;20.90;64.70
74617;DHT22;63123;50.906;4.198;2023-08-31T12:36:35;20.90;65.00
74617;DHT22;63123;50.906;4.198;2023-08-31T12:39:03;20.90;64.50
74617;DHT22;63123;50.906;4.198;2023-08-31T12:41:35;20.90;64.50
74617;DHT22;63123;50.906;4.198;2023-08-31T12:44:02;20.90;64.70
74617;DHT22;63123;50.906;4.198;2023-08-31T12:46:29;20.90;64.80
74617;DHT22;63123;50.906;4.198;2023-08-31T12:48:54;20.90;64.80
74617;DHT22;63123;50.906;4.198;2023-08-31T12:51:20;20.90;64.80
74617;DHT22;63123;50.906;4.198;2023-08-31T12:53:46;20.90;64.80
74617;DHT22;63123;50.906;4.198;2023-08-31T12:56:12;20.90;64.70
74617;DHT22;63123;50.906;4.198;2023-08-31T12:58:38;20.90;64.70
74617;DHT22;63123;50.906;4.198;2023-08-31T13:01:04;20.90;64.60
74617;DHT22;63123;50.906;4.198;2023-08-31T13:03:30;20.90;64.50
74617;DHT22;63123;50.906;4.198;2023-08-31T13:05:56;21.00;64.50
74617;DHT22;63123;50.906;4.198;2023-08-31T13:08:21;20.90;64.40
74617;DHT22;63123;50.906;4.198;2023-08-31T13:10:54;20.90;64.60
74617;DHT22;63123;50.906;4.198;2023-08-31T13:13:20;20.90;64.40
74617;DHT22;63123;50.906;4.198;2023-08-31T13:15:49;20.90;64.40
74617;DHT22;63123;50.906;4.198;2023-08-31T13:18:15;20.90;64.40
74617;DHT22;63123;50.906;4.198;2023-08-31T13:20:40;20.90;64.60
74617;DHT22;63123;50.906;4.198;2023-08-31T13:23:07;20.90;64.30
74617;DHT22;63123;50.906;4.198;2023-08-31T13:25:32;20.90;64.30
74617;DHT22;63123;50.906;4.198;2023-08-31T13:27:58;21.00;64.50
74617;DHT22;63123;50.906;4.198;2023-08-31T13:30:24;20.90;64.40
74617;DHT22;63123;50.906;4.198;2023-08-31T13:32:49;20.90;64.20
74617;DHT22;63123;50.906;4.198;2023-08-31T13:35:16;20.90;64.30
74617;DHT22;63123;50.906;4.198;2023-08-31T13:37:42;21.00;64.30
74617;DHT22;63123;50.906;4.198;2023-08-31T13:40:07;20.90;64.30
74617;DHT22;63123;50.906;4.198;2023-08-31T13:42:35;20.90;64.30
74617;DHT22;63123;50.906;4.198;2023-08-31T13:45:07;20.90;64.40
74617;DHT22;63123;50.906;4.198;2023-08-31T13:47:33;20.90;64.20
74617;DHT22;63123;50.906;4.198;2023-08-31T13:49:58;20.90;64.40
74617;DHT22;63123;50.906;4.198;2023-08-31T13:52:24;20.90;64.20
74617;DHT22;63123;50.906;4.198;2023-08-31T13:54:50;20.90;64.20
74617;DHT22;63123;50.906;4.198;2023-08-31T13:57:16;20.90;64.20
74617;DHT22;63123;50.906;4.198;2023-08-31T13:59:46;20.90;64.30
74617;DHT22;63123;50.906;4.198;2023-08-31T14:02:12;20.90;64.30
74617;DHT22;63123;50.906;4.198;2023-08-31T14:04:37;20.90;64.10
74617;DHT22;63123;50.906;4.198;2023-08-31T14:07:03;20.90;64.30
74617;DHT22;63123;50.906;4.198;2023-08-31T14:09:29;20.90;64.10
74617;DHT22;63123;50.906;4.198;2023-08-31T14:11:55;20.90;64.20
74617;DHT22;63123;50.906;4.198;2023-08-31T14:14:22;20.90;64.30
74617;DHT22;63123;50.906;4.198;2023-08-31T14:16:49;20.90;64.20
74617;DHT22;63123;50.906;4.198;2023-08-31T14:19:15;20.90;64.20
74617;DHT22;63123;50.906;4.198;2023-08-31T14:21:40;20.90;64.20
74617;DHT22;63123;50.906;4.198;2023-08-31T14:24:07;20.90;64.10
74617;DHT22;63123;50.906;4.198;2023-08-31T14:26:32;20.90;64.20
74617;DHT22;63123;50.906;4.198;2023-08-31T14:28:58;20.90;64.30
74617;DHT22;63123;50.906;4.198;2023-08-31T14:31:24;20.90;64.20
74617;DHT22;63123;50.906;4.198;2023-08-31T14:33:49;20.90;64.40
74617;DHT22;63123;50.906;4.198;2023-08-31T14:36:17;20.90;64.30
74617;DHT22;63123;50.906;4.198;2023-08-31T14:38:43;20.90;64.40
74617;DHT22;63123;50.906;4.198;2023-08-31T14:41:09;20.90;64.40
74617;DHT22;63123;50.906;4.198;2023-08-31T14:43:34;20.90;64.40
74617;DHT22;63123;50.906;4.198;2023-08-31T14:46:00;20.90;64.30
74617;DHT22;63123;50.906;4.198;2023-08-31T14:48:30;20.90;64.40
74617;DHT22;63123;50.906;4.198;2023-08-31T14:50:55;20.90;64.40
74617;DHT22;63123;50.906;4.198;2023-08-31T14:53:24;20.90;64.30
74617;DHT22;63123;50.906;4.198;2023-08-31T14:55:50;20.90;64.40
74617;DHT22;63123;50.906;4.198;2023-08-31T14:58:15;20.90;64.10
74617;DHT22;63123;50.906;4.198;2023-08-31T15:00:41;20.90;64.30
74617;DHT22;63123;50.906;4.198;2023-08-31T15:03:07;20.90;64.40
74617;DHT22;63123;50.906;4.198;2023-08-31T15:05:32;20.90;64.20
74617;DHT22;63123;50.906;4.198;2023-08-31T15:08:00;20.90;64.20
74617;DHT22;63123;50.906;4.198;2023-08-31T15:10:27;20.90;64.20
74617;DHT22;63123;50.906;4.198;2023-08-31T15:12:53;20.90;64.30
74617;DHT22;63123;50.906;4.198;2023-08-31T15:15:23;20.90;64.90
74617;DHT22;63123;50.906;4.198;2023-08-31T15:17:49;20.90;64.40
74617;DHT22;63123;50.906;4.198;2023-08-31T15:20:15;20.90;64.70
74617;DHT22;63123;50.906;4.198;2023-08-31T15:22:40;20.90;64.10
74617;DHT22;63123;50.906;4.198;2023-08-31T15:25:06;20.90;64.30
74617;DHT22;63123;50.906;4.198;2023-08-31T15:27:32;20.90;64.20
74617;DHT22;63123;50.906;4.198;2023-08-31T15:29:57;20.90;64.10
74617;DHT22;63123;50.906;4.198;2023-08-31T15:32:24;20.90;64.20
74617;DHT22;63123;50.906;4.198;2023-08-31T15:34:49;20.90;64.30
74617;DHT22;63123;50.906;4.198;2023-08-31T15:37:15;20.90;64.10
74617;DHT22;63123;50.906;4.198;2023-08-31T15:39:40;20.90;64.20
74617;DHT22;63123;50.906;4.198;2023-08-31T15:42:06;20.90;64.10
74617;DHT22;63123;50.906;4.198;2023-08-31T15:44:32;20.90;64.20
74617;DHT22;63123;50.906;4.198;2023-08-31T15:46:59;20.90;63.90
74617;DHT22;63123;50.906;4.198;2023-08-31T15:49:25;20.90;63.90
74617;DHT22;63123;50.906;4.198;2023-08-31T15:51:51;20.90;64.20
74617;DHT22;63123;50.906;4.198;2023-08-31T15:54:17;20.90;64.20
74617;DHT22;63123;50.906;4.198;2023-08-31T15:56:43;20.90;64.20